createdAt,value
2023-11-01T00:00:37.966Z,10.01029
2023-11-01T00:03:39.636Z,10.04672
2023-11-01T00:06:41.460Z,10.06097
2023-11-01T00:09:43.011Z,10.01568
2023-11-01T00:12:44.626Z,9.85097
2023-11-01T00:15:46.302Z,9.71002
2023-11-01T00:18:47.893Z,9.74138
2023-11-01T00:21:49.422Z,9.71573
2023-11-01T00:24:50.963Z,9.7322
2023-11-01T00:27:52.509Z,9.79111
2023-11-01T00:30:54.052Z,9.876
2023-11-01T00:33:55.629Z,9.88233
2023-11-01T00:36:57.221Z,9.965
2023-11-01T00:39:58.753Z,9.97133
2023-11-01T00:43:00.277Z,10.00174
2023-11-01T00:46:01.868Z,9.99161
2023-11-01T00:49:03.379Z,10.03975
2023-11-01T00:52:04.952Z,10.01694
2023-11-01T00:55:06.616Z,10.06319
2023-11-01T00:58:08.121Z,9.91781
2023-11-01T01:01:09.729Z,9.86839
2023-11-01T01:04:11.434Z,9.86681
2023-11-01T01:07:13.491Z,9.91495
2023-11-01T01:10:15.057Z,9.86238
2023-11-01T01:13:16.629Z,9.95233
2023-11-01T01:16:18.188Z,9.94156
2023-11-01T01:19:19.773Z,10.00142
2023-11-01T01:22:21.298Z,9.96848
2023-11-01T01:25:22.838Z,9.95106
2023-11-01T01:28:24.412Z,9.93713
2023-11-01T01:31:26.016Z,9.86618
2023-11-01T01:34:27.695Z,9.92636
2023-11-01T01:37:29.239Z,10.0483
2023-11-01T01:40:30.762Z,10.11387
2023-11-01T01:43:32.387Z,10.19147
2023-11-01T01:46:34.005Z,10.28491
2023-11-01T01:49:40.065Z,10.38341
2023-11-01T01:52:46.797Z,10.51391
2023-11-01T01:55:48.331Z,10.61938
2023-11-01T01:58:49.879Z,10.64948
2023-11-01T02:01:51.550Z,10.68083
2023-11-01T02:04:53.216Z,10.61368
2023-11-01T02:07:54.736Z,10.59531
2023-11-01T02:10:56.301Z,10.6045
2023-11-01T02:13:57.838Z,10.47305
2023-11-01T02:16:59.364Z,10.42364
2023-11-01T02:20:00.884Z,10.36409
2023-11-01T02:23:02.488Z,10.35047
2023-11-01T02:26:04.046Z,10.30835
2023-11-01T02:29:05.582Z,10.27129
2023-11-01T02:32:07.103Z,10.2773
2023-11-01T02:35:08.635Z,10.3207
2023-11-01T02:38:10.172Z,10.33812
2023-11-01T02:41:11.796Z,10.34509
2023-11-01T02:44:13.378Z,10.37201
2023-11-01T02:47:14.915Z,10.38911
2023-11-01T02:50:16.512Z,10.34762
2023-11-01T02:53:19.090Z,10.31468
2023-11-01T02:56:20.742Z,10.26654
2023-11-01T02:59:22.279Z,10.20762
2023-11-01T03:02:23.830Z,10.17626
2023-11-01T03:05:25.417Z,10.17246
2023-11-01T03:08:27.008Z,10.07649
2023-11-01T03:11:28.599Z,10.13889
2023-11-01T03:14:30.162Z,10.05685
2023-11-01T03:17:31.741Z,10.06762
2023-11-01T03:20:33.313Z,10.07522
2023-11-01T03:23:34.881Z,10.08536
2023-11-01T03:26:36.448Z,10.08061
2023-11-01T03:29:38.077Z,10.06477
2023-11-01T03:32:39.760Z,10.06319
2023-11-01T03:35:41.418Z,10.02486
2023-11-01T03:38:43.040Z,10.06097
2023-11-01T03:41:44.622Z,10.07364
2023-11-01T03:44:46.227Z,10.05654
2023-11-01T03:47:47.854Z,10.04513
2023-11-01T03:50:49.465Z,10.01188
2023-11-01T03:53:51.937Z,9.97102
2023-11-01T03:56:53.501Z,10.0293
2023-11-01T03:59:55.101Z,10.0559
2023-11-01T04:02:56.758Z,10.09138
2023-11-01T04:05:58.314Z,10.09043
2023-11-01T04:08:59.840Z,10.04165
2023-11-01T04:12:01.407Z,10.11007
2023-11-01T04:15:02.975Z,10.09106
2023-11-01T04:18:04.763Z,10.08789
2023-11-01T04:21:06.350Z,10.13319
2023-11-01T04:24:07.890Z,10.17468
2023-11-01T04:27:09.417Z,10.22694
2023-11-01T04:30:10.955Z,10.23803
2023-11-01T04:33:12.581Z,10.23708
2023-11-01T04:36:14.263Z,10.25482
2023-11-01T04:39:15.787Z,10.25418
2023-11-01T04:42:17.374Z,10.24025
2023-11-01T04:45:18.900Z,10.30264
2023-11-01T04:48:20.763Z,10.2754
2023-11-01T04:51:22.312Z,10.24785
2023-11-01T04:54:23.830Z,10.28744
2023-11-01T04:57:25.362Z,10.28554
2023-11-01T05:00:26.883Z,10.28744
2023-11-01T05:03:28.493Z,10.29884
2023-11-01T05:06:30.088Z,10.31816
2023-11-01T05:09:31.604Z,10.36092
2023-11-01T05:12:33.138Z,10.39101
2023-11-01T05:15:34.656Z,10.38975
2023-11-01T05:18:36.208Z,10.40495
2023-11-01T05:21:37.759Z,10.39767
2023-11-01T05:24:39.290Z,10.40337
2023-11-01T05:27:40.846Z,10.44454
2023-11-01T05:30:42.481Z,10.45468
2023-11-01T05:33:44.017Z,10.49237
2023-11-01T05:36:45.559Z,10.47717
2023-11-01T05:39:47.090Z,10.52278
2023-11-01T05:42:48.605Z,10.48572
2023-11-01T05:45:50.229Z,10.54178
2023-11-01T05:48:51.772Z,10.56681
2023-11-01T05:51:53.345Z,10.54337
2023-11-01T05:55:04.153Z,10.57441
2023-11-01T05:58:12.251Z,10.5364
2023-11-01T06:01:13.776Z,10.6121
2023-11-01T06:04:16.204Z,10.64852
2023-11-01T06:07:17.787Z,10.67323
2023-11-01T06:10:19.396Z,10.69128
2023-11-01T06:13:20.975Z,10.72803
2023-11-01T06:16:22.677Z,10.72961
2023-11-01T06:19:24.254Z,10.77902
2023-11-01T06:22:25.801Z,10.79929
2023-11-01T06:25:27.336Z,10.85346
2023-11-01T06:28:28.858Z,10.86581
2023-11-01T06:31:30.380Z,10.90825
2023-11-01T06:34:31.925Z,10.94341
2023-11-01T06:37:33.485Z,10.94436
2023-11-01T06:40:35.038Z,10.97762
2023-11-01T06:43:36.600Z,11.00644
2023-11-01T06:46:38.171Z,11.00233
2023-11-01T06:49:39.719Z,11.00074
2023-11-01T06:52:41.262Z,11.02006
2023-11-01T06:55:42.790Z,11.04255
2023-11-01T06:58:44.407Z,11.05966
2023-11-01T07:01:46.085Z,11.07834
2023-11-01T07:04:47.609Z,11.10178
2023-11-01T07:07:49.161Z,11.14961
2023-11-01T07:10:51.676Z,11.16957
2023-11-01T07:13:53.213Z,11.20567
2023-11-01T07:16:54.741Z,11.2402
2023-11-01T07:19:56.361Z,11.3007
2023-11-01T07:22:57.962Z,11.32984
2023-11-01T07:25:59.504Z,11.40776
2023-11-01T07:29:01.024Z,11.3935
2023-11-01T07:32:02.606Z,11.43373
2023-11-01T07:35:04.131Z,11.46065
2023-11-01T07:38:05.655Z,11.47681
2023-11-01T07:41:07.187Z,11.505
2023-11-01T07:44:08.750Z,11.50151
2023-11-01T07:47:10.315Z,11.50183
2023-11-01T07:50:13.575Z,11.53319
2023-11-01T07:53:15.224Z,11.58482
2023-11-01T07:56:16.796Z,11.59907
2023-11-01T07:59:18.331Z,11.65323
2023-11-01T08:02:19.896Z,11.68459
2023-11-01T08:05:21.556Z,11.69505
2023-11-01T08:08:23.143Z,11.71563
2023-11-01T08:11:25.216Z,11.76631
2023-11-01T08:14:26.849Z,11.766
2023-11-01T08:17:28.485Z,11.79324
2023-11-01T08:20:30.082Z,11.8417
2023-11-01T08:23:31.620Z,11.90663
2023-11-01T08:26:33.283Z,11.94369
2023-11-01T08:29:34.895Z,11.97283
2023-11-01T08:32:36.519Z,11.98297
2023-11-01T08:35:38.183Z,11.9893
2023-11-01T08:38:39.761Z,12.01686
2023-11-01T08:41:41.318Z,12.05994
2023-11-01T08:44:42.903Z,12.09319
2023-11-01T08:47:44.679Z,12.11727
2023-11-01T08:50:46.344Z,12.17175
2023-11-01T08:53:47.887Z,12.17365
2023-11-01T08:56:49.871Z,12.18347
2023-11-01T08:59:51.649Z,12.19329
2023-11-01T09:02:53.350Z,12.19424
2023-11-01T09:05:54.908Z,12.19329
2023-11-01T09:08:56.505Z,12.2294
2023-11-01T09:10:28.182Z,12.27722
2023-11-01T09:13:29.606Z,12.31523
2023-11-01T09:16:31.043Z,12.3184
2023-11-01T09:19:32.480Z,12.29338
2023-11-01T09:22:33.896Z,12.3222
2023-11-01T09:25:35.352Z,12.30003
2023-11-01T09:28:36.784Z,12.34723
2023-11-01T09:31:38.188Z,12.39537
2023-11-01T09:34:39.625Z,12.41913
2023-11-01T09:37:41.044Z,12.44573
2023-11-01T09:40:42.461Z,12.43465
2023-11-01T09:43:43.856Z,12.50053
2023-11-01T09:46:45.357Z,12.41406
2023-11-01T09:49:46.870Z,12.45397
2023-11-01T09:52:48.288Z,12.4999
2023-11-01T09:55:49.720Z,12.53221
2023-11-01T09:58:51.136Z,12.54234
2023-11-01T10:01:53.073Z,12.62058
2023-11-01T10:04:54.610Z,12.66524
2023-11-01T10:07:56.044Z,12.70927
2023-11-01T10:10:57.456Z,12.67189
2023-11-01T10:13:58.865Z,12.74886
2023-11-01T10:17:00.275Z,12.81475
2023-11-01T10:20:04.087Z,12.81791
2023-11-01T10:23:05.890Z,12.86764
2023-11-01T10:26:07.295Z,12.85497
2023-11-01T10:29:08.722Z,12.77927
2023-11-01T10:32:10.132Z,12.76882
2023-11-01T10:35:11.585Z,12.81031
2023-11-01T10:38:13.976Z,12.87588
2023-11-01T10:41:15.464Z,12.94366
2023-11-01T10:44:16.881Z,12.87683
2023-11-01T10:47:18.325Z,12.91769
2023-11-01T10:50:19.734Z,12.81823
2023-11-01T10:53:21.128Z,12.87176
2023-11-01T10:56:22.530Z,12.94176
2023-11-01T10:59:23.975Z,12.84642
2023-11-01T11:02:25.531Z,12.84706
2023-11-01T11:05:27.425Z,12.86163
2023-11-01T11:08:28.914Z,12.94081
2023-11-01T11:11:30.353Z,12.91484
2023-11-01T11:14:31.817Z,13.01747
2023-11-01T11:17:33.281Z,13.12199
2023-11-01T11:20:34.737Z,13.23317
2023-11-01T11:23:36.415Z,13.32186
2023-11-01T11:26:37.971Z,13.26612
2023-11-01T11:29:39.452Z,13.26897
2023-11-01T11:32:40.984Z,13.31078
2023-11-01T11:35:42.518Z,13.23824
2023-11-01T11:38:43.987Z,13.33897
2023-11-01T11:41:45.445Z,13.2072
2023-11-01T11:44:46.893Z,13.06973
2023-11-01T11:47:48.439Z,13.01905
2023-11-01T11:50:49.998Z,12.98801
2023-11-01T11:53:52.331Z,13.03711
2023-11-01T11:56:53.863Z,12.93701
2023-11-01T11:59:55.304Z,12.97312
2023-11-01T12:02:56.804Z,13.08557
2023-11-01T12:05:58.248Z,12.98009
2023-11-01T12:08:59.673Z,13.00796
2023-11-01T12:12:01.208Z,12.97977
2023-11-01T12:15:03.039Z,13.03552
2023-11-01T12:18:04.640Z,13.01493
2023-11-01T12:21:06.116Z,13.0143
2023-11-01T12:24:07.529Z,13.0314
2023-11-01T12:27:09.032Z,13.12453
2023-11-01T12:30:10.843Z,13.16412
2023-11-01T12:33:12.464Z,13.22906
2023-11-01T12:36:13.905Z,13.19485
2023-11-01T12:39:15.305Z,13.19358
2023-11-01T12:42:16.713Z,13.38141
2023-11-01T12:45:18.155Z,13.45268
2023-11-01T12:48:19.664Z,13.54676
2023-11-01T12:51:21.160Z,13.48119
2023-11-01T12:54:22.587Z,13.45173
2023-11-01T12:57:23.995Z,13.48974
2023-11-01T13:00:25.519Z,13.58223
2023-11-01T13:03:27.398Z,13.55436
2023-11-01T13:06:28.954Z,13.56101
2023-11-01T13:09:30.358Z,13.54644
2023-11-01T13:12:31.770Z,13.49829
2023-11-01T13:15:33.246Z,13.53345
2023-11-01T13:18:34.812Z,13.50716
2023-11-01T13:21:36.249Z,13.53155
2023-11-01T13:24:38.103Z,13.4739
2023-11-01T13:27:39.518Z,13.39123
2023-11-01T13:30:40.940Z,13.33263
2023-11-01T13:33:42.478Z,13.25598
2023-11-01T13:36:43.950Z,13.29526
2023-11-01T13:39:45.401Z,13.29272
2023-11-01T13:42:46.817Z,13.26517
2023-11-01T13:45:48.246Z,13.29589
2023-11-01T13:48:49.808Z,13.31236
2023-11-01T13:51:51.369Z,13.31426
2023-11-01T13:54:52.780Z,13.29177
2023-11-01T13:57:54.207Z,13.26992
2023-11-01T14:00:55.703Z,13.27435
2023-11-01T14:03:57.301Z,13.2715
2023-11-01T14:06:58.844Z,13.19991
2023-11-01T14:10:00.238Z,13.16317
2023-11-01T14:13:01.847Z,13.1619
2023-11-01T14:16:03.285Z,13.11756
2023-11-01T14:19:06.289Z,13.05833
2023-11-01T14:22:09.030Z,13.09602
2023-11-01T14:25:10.456Z,12.99149
2023-11-01T14:28:11.884Z,13.02792
2023-11-01T14:31:13.293Z,13.05263
2023-11-01T14:34:14.776Z,13.04629
2023-11-01T14:37:16.238Z,12.95063
2023-11-01T14:40:17.667Z,12.90597
2023-11-01T14:43:19.085Z,12.74823
2023-11-01T14:46:20.512Z,12.7704
2023-11-01T14:49:21.942Z,12.81475
2023-11-01T14:52:23.377Z,12.82995
2023-11-01T14:55:24.793Z,12.81538
2023-11-01T14:58:26.284Z,12.75076
2023-11-01T15:01:27.749Z,12.70515
2023-11-01T15:04:29.250Z,12.73556
2023-11-01T15:07:30.689Z,12.69818
2023-11-01T15:10:32.923Z,12.71719
2023-11-01T15:13:34.914Z,12.73017
2023-11-01T15:16:36.382Z,12.77484
2023-11-01T15:19:37.811Z,12.77927
2023-11-01T15:22:40.118Z,12.73619
2023-11-01T15:25:41.561Z,12.55723
2023-11-01T15:28:42.966Z,12.45302
2023-11-01T15:31:44.391Z,12.49546
2023-11-01T15:34:45.827Z,12.47234
2023-11-01T15:37:47.389Z,12.38017
2023-11-01T15:40:48.910Z,12.28546
2023-11-01T15:43:50.310Z,12.28768
2023-11-01T15:46:51.716Z,12.31714
2023-11-01T15:49:53.121Z,12.21926
2023-11-01T15:52:54.552Z,12.09224
2023-11-01T15:55:55.963Z,12.04252
2023-11-01T15:58:57.386Z,12.04188
2023-11-01T16:01:58.815Z,12.15496
2023-11-01T16:05:00.381Z,12.12297
2023-11-01T16:08:01.942Z,12.16921
2023-11-01T16:11:03.643Z,12.10618
2023-11-01T16:14:05.073Z,12.02414
2023-11-01T16:17:06.506Z,11.94084
2023-11-01T16:20:08.060Z,11.93957
2023-11-01T16:23:09.473Z,11.90631
2023-11-01T16:26:10.874Z,11.83473
2023-11-01T16:29:12.264Z,11.70708
2023-11-01T16:32:13.664Z,11.64247
2023-11-01T16:35:15.113Z,11.5126
2023-11-01T16:38:16.552Z,11.35359
2023-11-01T16:41:18.685Z,11.37703
2023-11-01T16:44:20.121Z,11.3745
2023-11-01T16:47:21.727Z,11.3254
2023-11-01T16:50:23.284Z,11.174
2023-11-01T16:53:24.721Z,11.22816
2023-11-01T16:56:26.127Z,11.18635
2023-11-01T16:59:27.546Z,11.17653
2023-11-01T17:02:31.559Z,11.19712
2023-11-01T17:05:35.496Z,11.17875
2023-11-01T17:08:36.946Z,11.07898
2023-11-01T17:11:38.395Z,11.11635
2023-11-01T17:14:39.915Z,11.0926
2023-11-01T17:17:41.511Z,11.0264
2023-11-01T17:20:43.403Z,10.91395
2023-11-01T17:23:44.945Z,10.82938
2023-11-01T17:26:46.366Z,10.68622
2023-11-01T17:29:47.925Z,10.63459
2023-11-01T17:32:49.510Z,10.65328
2023-11-01T17:35:51.089Z,10.64124
2023-11-01T17:38:52.594Z,10.64948
2023-11-01T17:41:54.844Z,10.61052
2023-11-01T17:44:56.372Z,10.64029
2023-11-01T17:47:57.858Z,10.54812
2023-11-01T17:50:59.327Z,10.53957
2023-11-01T17:54:00.829Z,10.45341
2023-11-01T17:57:02.355Z,10.43853
2023-11-01T18:00:04.121Z,10.44803
2023-11-01T18:03:05.762Z,10.36726
2023-11-01T18:06:07.317Z,10.39291
2023-11-01T18:09:08.818Z,10.32925
2023-11-01T18:12:10.274Z,10.27667
2023-11-01T18:15:11.766Z,10.28301
2023-11-01T18:18:13.294Z,10.27477
2023-11-01T18:21:14.871Z,10.25703
2023-11-01T18:24:16.330Z,10.21839
2023-11-01T18:27:17.822Z,10.20129
2023-11-01T18:30:19.509Z,10.17721
2023-11-01T18:33:21.002Z,10.17088
2023-11-01T18:36:22.492Z,10.14649
2023-11-01T18:39:23.969Z,10.1031
2023-11-01T18:42:25.468Z,10.07744
2023-11-01T18:45:26.905Z,9.99319
2023-11-01T18:48:28.536Z,10.00523
2023-11-01T18:51:30.041Z,9.98052
2023-11-01T18:54:31.462Z,9.95423
2023-11-01T18:57:32.897Z,9.89152
2023-11-01T19:00:34.293Z,9.79523
2023-11-01T19:03:35.837Z,9.78509
2023-11-01T19:06:37.376Z,9.7474
2023-11-01T19:09:38.813Z,9.7379
2023-11-01T19:12:40.227Z,9.69736
2023-11-01T19:15:41.663Z,9.62672
2023-11-01T19:18:43.227Z,9.51238
2023-11-01T19:21:44.725Z,9.4351
2023-11-01T19:24:46.135Z,9.49401
2023-11-01T19:27:47.650Z,9.48039
2023-11-01T19:30:49.060Z,9.4294
2023-11-01T19:33:53.125Z,9.41007
2023-11-01T19:36:54.967Z,9.36731
2023-11-01T19:39:56.355Z,9.30904
2023-11-01T19:42:57.765Z,9.25614
2023-11-01T19:45:59.174Z,9.26406
2023-11-01T19:49:00.571Z,9.13641
2023-11-01T19:52:02.028Z,9.06166
2023-11-01T19:55:03.460Z,9.11519
2023-11-01T19:58:04.885Z,9.10759
2023-11-01T20:01:06.382Z,9.05723
2023-11-01T20:04:07.947Z,9.03126
2023-11-01T20:07:09.392Z,8.88873
2023-11-01T20:10:10.889Z,8.81493
2023-11-01T20:13:12.360Z,8.78832
2023-11-01T20:16:21.514Z,8.82506
2023-11-01T20:19:27.206Z,8.78579
2023-11-01T20:22:28.624Z,8.75158
2023-11-01T20:25:30.060Z,8.67461
2023-11-01T20:28:31.483Z,8.66321
2023-11-01T20:31:32.877Z,8.61222
2023-11-01T20:34:34.346Z,8.57358
2023-11-01T20:37:35.804Z,8.64674
2023-11-01T20:40:37.249Z,8.56946
2023-11-01T20:43:38.687Z,8.54824
2023-11-01T20:46:40.130Z,8.52923
2023-11-01T20:49:41.611Z,8.49186
2023-11-01T20:52:43.029Z,8.49217
2023-11-01T20:55:44.438Z,8.45765
2023-11-01T20:58:45.849Z,8.43485
2023-11-01T21:01:47.356Z,8.4377
2023-11-01T21:04:48.803Z,8.35883
2023-11-01T21:07:50.259Z,8.30562
2023-11-01T21:10:51.666Z,8.29168
2023-11-01T21:13:53.063Z,8.28915
2023-11-01T21:16:54.480Z,8.27046
2023-11-01T21:19:55.907Z,8.28883
2023-11-01T21:22:57.347Z,8.24639
2023-11-01T21:25:58.748Z,8.23847
2023-11-01T21:29:01.224Z,8.19983
2023-11-01T21:32:02.706Z,8.17544
2023-11-01T21:35:04.102Z,8.19666
2023-11-01T21:38:05.515Z,8.22834
2023-11-01T21:41:06.978Z,8.15042
2023-11-01T21:44:08.374Z,8.12413
2023-11-01T21:47:09.851Z,8.10956
2023-11-01T21:50:11.274Z,8.08517
2023-11-01T21:53:12.675Z,8.10228
2023-11-01T21:56:14.080Z,8.12096
2023-11-01T21:59:15.505Z,8.10544
2023-11-01T22:02:16.918Z,8.09404
2023-11-01T22:05:18.458Z,8.04495
2023-11-01T22:08:19.925Z,8.02024
2023-11-01T22:11:21.346Z,7.91984
2023-11-01T22:14:22.753Z,7.94423
2023-11-01T22:17:24.165Z,7.95785
2023-11-01T22:20:25.590Z,7.97368
2023-11-01T22:23:27.021Z,8.07599
2023-11-01T22:26:28.442Z,8.01042
2023-11-01T22:29:29.857Z,8.08074
2023-11-01T22:32:31.303Z,8.03386
2023-11-01T22:35:32.720Z,8.03418
2023-11-01T22:38:34.134Z,8.09087
2023-11-01T22:41:35.553Z,8.08581
2023-11-01T22:44:36.965Z,8.09277
2023-11-01T22:47:38.458Z,8.09911
2023-11-01T22:50:39.875Z,8.11273
2023-11-01T22:53:41.286Z,8.10924
2023-11-01T22:56:42.706Z,8.13838
2023-11-01T22:59:44.083Z,8.19191
2023-11-01T23:02:46.755Z,8.21662
2023-11-01T23:05:49.427Z,8.27426
2023-11-01T23:08:52.216Z,8.32367
2023-11-01T23:11:55.886Z,8.37847
2023-11-01T23:14:58.496Z,8.41236
2023-11-01T23:18:01.335Z,8.48711
2023-11-01T23:20:04.214Z,8.53367
2023-11-01T23:23:05.843Z,8.53303
2023-11-01T23:26:07.292Z,8.56376
2023-11-01T23:29:16.757Z,8.54792
2023-11-01T23:32:20.586Z,8.59575
2023-11-01T23:35:22.217Z,8.6895
2023-11-01T23:38:23.720Z,8.73448
2023-11-01T23:41:25.195Z,8.82411
2023-11-01T23:44:26.698Z,8.88809
2023-11-01T23:47:28.211Z,8.94067
2023-11-01T23:50:29.723Z,9.00655
2023-11-01T23:53:31.201Z,9.11804
2023-11-01T23:56:32.677Z,9.18139
2023-11-01T23:59:34.167Z,9.29161
